Observations for LUTON AIRPORT, United Kingdom (EGGW)

EGGW 240920Z AUTO 21005KT 9999 NCD 24/18 Q1015  
EGGW 240850Z AUTO 21004KT 160V240 9999 NCD 24/18 Q1015  
EGGW 240820Z AUTO 18005KT 120V210 9999 NCD 24/18 Q1015  
EGGW 240750Z AUTO 15004KT 110V210 9999 NCD 24/18 Q1014  
EGGW 240720Z AUTO 16005KT 120V220 9999 NCD 22/17 Q1014  
EGGW 240650Z AUTO VRB03KT 9999 NCD 21/17 Q1014  
EGGW 240620Z AUTO 10004KT 070V150 9000 NCD 20/17 Q1014  
EGGW 240550Z AUTO 08004KT 6000 NCD 18/17 Q1014  
EGGW 240520Z AUTO 07005KT 6000 NCD 17/16 Q1014  
EGGW 240450Z AUTO VRB02KT 4400 BR NCD 16/15 Q1014   
EGGW 240420Z AUTO 09002KT 4500 HZ NCD 16/15 Q1014   
EGGW 240350Z AUTO 08004KT 4600 HZ NCD 16/15 Q1014   
EGGW 240320Z AUTO 09002KT 5000 HZ NCD 16/15 Q1014   
EGGW 240250Z AUTO 10003KT 5000 HZ NCD 16/15 Q1014   
EGGW 240220Z AUTO 12004KT 5000 HZ NCD 16/15 Q1014   
EGGW 240150Z AUTO 11005KT 6000 NCD 16/15 Q1014  
EGGW 240120Z AUTO 11005KT 7000 NCD 16/15 Q1014  
EGGW 240050Z AUTO 10005KT 8000 NCD 17/14 Q1014  
EGGW 240020Z AUTO 09004KT 060V120 9999 NCD 17/14 Q1015  
EGGW 232350Z AUTO 09006KT 9999 NCD 17/15 Q1015  
EGGW 232320Z AUTO 08006KT 9999 NCD 17/14 Q1015  
EGGW 232250Z AUTO 07006KT 9999 NCD 17/14 Q1015  
EGGW 232220Z AUTO 06007KT 9999 NCD 17/14 Q1015  
EGGW 232150Z AUTO 07008KT 9999 NCD 17/14 Q1015  
EGGW 232120Z AUTO 07008KT 9999 NCD 18/14 Q1015  
EGGW 232050Z AUTO 07009KT 9999 NCD 18/14 Q1016  
EGGW 232020Z AUTO 08006KT 9999 NCD 18/14 Q1015  
EGGW 231950Z AUTO 06007KT 9999 NCD 18/14 Q1015  
EGGW 231920Z AUTO 05007KT 9999 NCD 19/14 Q1015  
EGGW 231850Z AUTO 07007KT 9999 NCD 19/15 Q1015  
EGGW 231820Z AUTO 08006KT 040V100 9999 NCD 20/14 Q1015  
EGGW 231750Z AUTO 09007KT 9999 NCD 20/14 Q1015  
EGGW 231720Z AUTO 09006KT 9999 NCD 20/15 Q1015  
EGGW 231650Z AUTO 09006KT 9999 NCD 21/15 Q1016  
EGGW 231620Z 09008KT CAVOK 21/14 Q1015  
EGGW 231550Z 09009KT CAVOK 21/14 Q1016  
EGGW 231520Z AUTO 09008KT 9999 NCD 22/15 Q1016  
EGGW 231450Z AUTO 08010KT 9999 NCD 22/15 Q1016  
EGGW 231420Z AUTO 09010KT 9999 NCD 22/14 Q1016  
EGGW 231350Z AUTO 09008KT 050V120 9999 NCD 22/15 Q1017  
EGGW 231320Z AUTO 08008KT 050V110 9999 NCD 22/15 Q1017  
EGGW 231250Z AUTO 08009KT 9999 NCD 21/15 Q1017  
EGGW 231220Z 09008KT 060V130 CAVOK 21/14 Q1017  
EGGW 231150Z AUTO 10008KT 9999 FEW030 22/14 Q1017   
EGGW 231120Z AUTO 09007KT 050V130 9999 NCD 22/15 Q1018  
EGGW 231050Z AUTO 08007KT 040V130 9999 NCD 21/15 Q1018  
EGGW 231020Z 07007KT 040V100 CAVOK 21/15 Q1018  
EGGW 230950Z 04006KT 010V110 CAVOK 20/15 Q1018  
EGGW 230920Z 03006KT CAVOK 19/15 Q1018  
EGGW 230850Z AUTO 06005KT 010V130 9999 NCD 19/15 Q1019